Time;durP1;ratioP1;P1;durP2;ratioP2;P2;SDS_P1;SDS_P2;PMS_P1;PMS_P2;Temp;Humidity;BMP_temperature;BMP_pressure;BME280_temperature;BME280_humidity;BME280_pressure;Samples;Min_cycle;Max_cycle;Signal;HPM_P1;HPM_P2
2023/07/05 00:01:06;;;;;;;4.55;2.20;;;;;;;15.89;100.00;95511.44;5070166;28;24434;-74
2023/07/05 00:03:32;;;;;;;4.15;2.33;;;;;;;15.73;100.00;95510.19;5078858;28;24442;-74
2023/07/05 00:06:03;;;;;;;2.83;2.10;;;;;;;15.88;100.00;95509.81;5074534;28;24978;-74
2023/07/05 00:08:32;;;;;;;6.25;2.17;;;;;;;16.05;100.00;95506.50;5074008;28;24449;-74
2023/07/05 00:11:03;;;;;;;3.08;2.00;;;;;;;16.19;100.00;95503.50;5073998;28;24460;-74
2023/07/05 00:13:29;;;;;;;2.00;1.70;;;;;;;16.30;100.00;95497.31;5072016;28;25048;-74
2023/07/05 00:15:56;;;;;;;4.80;2.03;;;;;;;16.32;100.00;95492.78;5074523;28;24438;-74
2023/07/05 00:18:22;;;;;;;3.83;1.90;;;;;;;16.34;100.00;95498.69;5081834;28;24972;-74
2023/07/05 00:20:49;;;;;;;2.92;1.77;;;;;;;16.39;100.00;95480.81;5077098;28;24442;-74
2023/07/05 00:23:15;;;;;;;4.28;2.03;;;;;;;16.51;100.00;95484.09;5069106;28;24447;-74
2023/07/05 00:25:43;;;;;;;2.43;1.97;;;;;;;16.34;100.00;95476.97;5079859;28;24438;-74
2023/07/05 00:28:09;;;;;;;2.40;1.80;;;;;;;16.33;100.00;95488.38;5068855;28;25023;-74
2023/07/05 00:30:35;;;;;;;2.65;1.70;;;;;;;16.33;100.00;95494.44;5078840;28;24446;-74
2023/07/05 00:33:02;;;;;;;3.70;1.95;;;;;;;16.34;100.00;95474.34;5070677;28;24496;-74
2023/07/05 00:35:28;;;;;;;2.55;2.03;;;;;;;16.33;100.00;95467.47;5077323;28;24442;-74
2023/07/05 00:37:55;;;;;;;4.10;1.83;;;;;;;16.35;100.00;95469.00;5073123;28;24852;-74
2023/07/05 00:40:21;;;;;;;2.80;2.42;;;;;;;16.29;100.00;95471.34;5071154;28;24435;-74
2023/07/05 00:42:49;;;;;;;5.50;2.47;;;;;;;16.17;100.00;95468.03;5071513;28;24449;-74
2023/07/05 00:45:51;;;;;;;2.25;1.80;;;;;;;16.12;100.00;95468.44;5072711;28;24454;-74
2023/07/05 00:48:20;;;;;;;3.72;1.77;;;;;;;16.14;100.00;95458.69;5076564;28;24505;-74
2023/07/05 00:50:49;;;;;;;2.28;1.83;;;;;;;16.21;100.00;95469.41;5069639;28;24831;-74
2023/07/05 00:53:17;;;;;;;3.60;2.22;;;;;;;16.10;100.00;95493.88;5065225;28;24453;-74
2023/07/05 00:55:50;;;;;;;2.17;1.80;;;;;;;16.02;100.00;95470.25;5073391;28;24847;-74
2023/07/05 00:58:19;;;;;;;4.30;2.13;;;;;;;16.11;100.00;95463.34;5069655;28;24792;-74
2023/07/05 01:00:46;;;;;;;4.38;2.10;;;;;;;16.04;100.00;95452.63;5080188;28;24456;-74
2023/07/05 01:03:19;;;;;;;5.15;1.95;;;;;;;16.01;100.00;95444.22;5079707;28;24434;-74
2023/07/05 01:05:46;;;;;;;3.05;1.80;;;;;;;15.99;100.00;95433.94;5074553;28;24507;-74
2023/07/05 01:08:12;;;;;;;2.15;1.90;;;;;;;16.06;100.00;95439.44;5076870;28;24808;-74
2023/07/05 01:10:40;;;;;;;3.90;1.90;;;;;;;15.95;100.00;95453.47;5077783;28;24491;-74
2023/07/05 01:13:12;;;;;;;4.35;2.08;;;;;;;15.99;100.00;95444.38;5067552;28;24996;-74
2023/07/05 01:15:48;;;;;;;4.18;2.03;;;;;;;15.75;100.00;95462.22;5082025;28;24429;-74
2023/07/05 01:18:23;;;;;;;2.63;1.92;;;;;;;15.80;100.00;95447.00;5066337;28;24437;-74
2023/07/05 01:20:59;;;;;;;3.13;2.00;;;;;;;15.86;100.00;95451.66;5080953;28;24564;-74
2023/07/05 01:24:03;;;;;;;2.72;1.80;;;;;;;15.83;100.00;95439.69;5061327;28;24821;-74
2023/07/05 01:26:48;;;;;;;7.30;2.22;;;;;;;15.92;100.00;95410.16;5012791;28;24478;-74
2023/07/05 01:29:44;;;;;;;3.45;2.03;;;;;;;15.81;100.00;95439.00;5062682;28;24450;-74
2023/07/05 01:32:17;;;;;;;3.95;2.53;;;;;;;15.50;100.00;95435.66;5080618;28;24437;-74
2023/07/05 01:34:48;;;;;;;2.38;1.77;;;;;;;15.50;100.00;95438.25;5073679;28;24430;-74
2023/07/05 01:37:29;;;;;;;2.83;2.00;;;;;;;15.61;100.00;95440.75;5073297;28;24437;-74
2023/07/05 01:39:55;;;;;;;3.95;2.38;;;;;;;15.38;100.00;95458.41;5074358;28;24426;-74
2023/07/05 01:42:33;;;;;;;4.28;2.42;;;;;;;15.41;100.00;95446.88;5068038;28;24518;-74
2023/07/05 01:45:00;;;;;;;3.23;2.37;;;;;;;15.33;100.00;95459.78;5079629;28;24433;-74
2023/07/05 01:47:34;;;;;;;4.53;2.30;;;;;;;15.33;100.00;95465.00;5083152;28;24838;-74
2023/07/05 01:50:10;;;;;;;3.73;2.13;;;;;;;15.36;100.00;95472.56;5061309;28;24536;-74
2023/07/05 01:52:51;;;;;;;2.28;1.70;;;;;;;15.32;100.00;95471.19;5078111;28;25042;-74
2023/07/05 01:55:21;;;;;;;6.20;2.05;;;;;;;15.34;100.00;95475.28;5059439;28;24445;-74
2023/07/05 01:57:54;;;;;;;3.42;1.90;;;;;;;15.33;100.00;95472.81;5075481;28;24427;-74
2023/07/05 02:00:23;;;;;;;8.38;2.10;;;;;;;15.35;100.00;95483.94;5061681;28;24430;-74
2023/07/05 02:02:56;;;;;;;7.32;2.45;;;;;;;15.40;100.00;95479.97;5077142;28;24439;-73
2023/07/05 02:05:23;;;;;;;4.13;2.23;;;;;;;15.43;100.00;95478.91;5064806;28;25096;-73
2023/07/05 02:07:52;;;;;;;3.65;1.98;;;;;;;15.37;100.00;95475.03;5060161;28;24435;-73
2023/07/05 02:10:18;;;;;;;4.63;2.00;;;;;;;15.46;100.00;95481.22;5068780;28;24451;-73
2023/07/05 02:12:45;;;;;;;2.35;1.80;;;;;;;15.54;100.00;95484.00;5071515;28;24457;-72
2023/07/05 02:15:12;;;;;;;5.63;2.13;;;;;;;15.52;100.00;95466.81;5079831;28;24439;-72
2023/07/05 02:17:39;;;;;;;2.83;1.77;;;;;;;15.63;100.00;95464.09;5073098;28;24434;-73
2023/07/05 02:20:10;;;;;;;2.35;1.70;;;;;;;15.62;100.00;95473.72;5077989;28;24431;-72
2023/07/05 02:22:36;;;;;;;2.97;2.00;;;;;;;15.60;100.00;95480.03;5060788;28;24443;-73
2023/07/05 02:25:03;;;;;;;2.97;1.73;;;;;;;15.61;100.00;95473.84;5056814;28;24442;-72
2023/07/05 02:27:29;;;;;;;4.80;1.42;;;;;;;15.70;100.00;95471.28;5073341;28;24442;-72
2023/07/05 02:29:56;;;;;;;2.90;1.60;;;;;;;15.63;100.00;95479.75;5075953;28;24445;-72
2023/07/05 02:32:23;;;;;;;2.40;1.38;;;;;;;15.62;100.00;95473.72;5068650;28;24918;-72
2023/07/05 02:34:49;;;;;;;3.88;1.65;;;;;;;15.52;100.00;95462.44;5061962;28;24443;-73
2023/07/05 02:37:17;;;;;;;2.63;1.13;;;;;;;15.57;100.00;95460.22;5071192;28;24431;-73
2023/07/05 02:39:44;;;;;;;2.40;1.40;;;;;;;15.62;100.00;95460.66;5072066;28;24519;-73
2023/07/05 02:42:10;;;;;;;2.70;1.38;;;;;;;15.65;100.00;95459.59;5071122;28;24461;-73
2023/07/05 02:44:36;;;;;;;1.33;1.05;;;;;;;15.62;100.00;95465.88;5074228;28;24434;-73
2023/07/05 02:47:03;;;;;;;5.93;1.20;;;;;;;15.71;100.00;95464.28;5066616;28;24976;-73
2023/07/05 02:49:30;;;;;;;5.73;1.13;;;;;;;15.65;100.00;95462.19;5065862;28;24470;-72
2023/07/05 02:51:56;;;;;;;1.60;0.98;;;;;;;15.78;100.00;95468.00;5068300;28;24434;-72
2023/07/05 02:54:24;;;;;;;1.48;1.20;;;;;;;15.75;100.00;95459.59;5069380;28;24497;-72
2023/07/05 02:56:50;;;;;;;2.63;1.40;;;;;;;15.75;100.00;95464.84;5070611;28;24438;-72
2023/07/05 02:59:17;;;;;;;2.10;1.30;;;;;;;15.78;100.00;95467.19;5078269;28;25045;-72
2023/07/05 03:01:43;;;;;;;3.05;1.27;;;;;;;15.67;100.00;95468.94;5077233;28;24492;-73
2023/07/05 03:04:10;;;;;;;1.70;1.17;;;;;;;15.73;100.00;95470.19;5079527;28;24873;-73
2023/07/05 03:06:36;;;;;;;2.50;1.15;;;;;;;15.63;100.00;95475.38;5067963;28;24439;-73
2023/07/05 03:09:03;;;;;;;2.03;1.20;;;;;;;15.63;100.00;95472.75;5078450;28;24463;-72
2023/07/05 03:11:31;;;;;;;2.10;1.10;;;;;;;15.56;100.00;95468.19;5072274;28;24439;-72
2023/07/05 03:13:57;;;;;;;2.40;1.23;;;;;;;15.52;100.00;95459.00;5079896;28;24446;-72
2023/07/05 03:16:24;;;;;;;1.48;1.10;;;;;;;15.53;100.00;95461.47;5072930;28;24959;-72
2023/07/05 03:18:50;;;;;;;3.20;1.67;;;;;;;15.51;100.00;95473.84;5077456;28;24434;-73
2023/07/05 03:21:16;;;;;;;2.30;1.13;;;;;;;15.55;100.00;95463.94;5082071;28;24437;-72
2023/07/05 03:23:43;;;;;;;1.50;1.08;;;;;;;15.48;100.00;95463.66;5075767;28;24508;-72
2023/07/05 03:26:10;;;;;;;1.48;0.80;;;;;;;15.38;100.00;95471.44;5083102;28;24495;-72
2023/07/05 03:28:38;;;;;;;1.58;1.10;;;;;;;15.44;100.00;95470.09;5061990;28;24446;-72
2023/07/05 03:31:07;;;;;;;3.63;1.25;;;;;;;15.53;100.00;95471.91;5085106;28;24434;-72
2023/07/05 03:33:34;;;;;;;3.50;1.40;;;;;;;15.57;100.00;95472.47;5077999;28;24450;-72
2023/07/05 03:36:03;;;;;;;1.70;1.08;;;;;;;15.59;100.00;95473.16;5082220;28;24431;-74
2023/07/05 03:38:31;;;;;;;2.72;1.30;;;;;;;15.63;100.00;95471.94;5072450;28;24442;-72
2023/07/05 03:40:58;;;;;;;2.70;1.40;;;;;;;15.58;100.00;95471.53;5071325;28;24793;-72
2023/07/05 03:43:26;;;;;;;3.22;1.50;;;;;;;15.42;100.00;95475.44;5073692;28;24529;-72
2023/07/05 03:45:54;;;;;;;1.47;1.20;;;;;;;15.44;100.00;95480.53;5072928;28;24442;-72
2023/07/05 03:48:21;;;;;;;2.20;1.40;;;;;;;15.38;100.00;95478.44;5083157;28;24443;-72
2023/07/05 03:50:48;;;;;;;2.38;1.67;;;;;;;15.36;100.00;95491.66;5067134;28;24481;-72
2023/07/05 03:53:14;;;;;;;2.20;1.40;;;;;;;15.34;100.00;95482.28;5080746;28;24441;-72
2023/07/05 03:55:41;;;;;;;2.08;1.50;;;;;;;15.37;100.00;95489.84;5069250;28;24445;-72
2023/07/05 03:58:07;;;;;;;3.03;1.35;;;;;;;15.33;100.00;95476.25;5079953;28;24461;-72
2023/07/05 04:00:34;;;;;;;3.30;1.65;;;;;;;15.33;100.00;95478.03;5072301;28;24431;-72
2023/07/05 04:03:01;;;;;;;3.13;1.67;;;;;;;15.37;100.00;95482.84;5076347;28;24442;-74
2023/07/05 04:05:28;;;;;;;2.97;1.40;;;;;;;15.38;100.00;95478.44;5071078;28;24442;-74
2023/07/05 04:07:54;;;;;;;1.98;1.50;;;;;;;15.40;100.00;95469.53;5059305;28;24466;-74
2023/07/05 04:10:21;;;;;;;1.53;1.40;;;;;;;15.47;100.00;95472.44;5066232;28;24457;-73
2023/07/05 04:12:47;;;;;;;2.65;1.63;;;;;;;15.46;100.00;95476.84;5068313;28;24438;-74
2023/07/05 04:15:14;;;;;;;3.72;1.63;;;;;;;15.47;100.00;95475.06;5077683;28;24430;-74
2023/07/05 04:17:40;;;;;;;4.50;1.70;;;;;;;15.44;100.00;95472.72;5078224;28;24967;-74
2023/07/05 04:20:09;;;;;;;3.15;1.40;;;;;;;15.55;100.00;95466.56;5071800;28;24438;-74
2023/07/05 04:22:36;;;;;;;2.13;1.48;;;;;;;15.54;100.00;95463.13;5077811;28;24854;-74
2023/07/05 04:25:03;;;;;;;2.85;1.85;;;;;;;15.51;100.00;95471.22;5067605;28;24450;-74
2023/07/05 04:27:29;;;;;;;3.67;1.80;;;;;;;15.51;100.00;95465.19;5059320;28;24443;-73
2023/07/05 04:29:56;;;;;;;3.80;1.80;;;;;;;15.51;100.00;95473.00;5058835;28;24526;-73
2023/07/05 04:32:22;;;;;;;4.72;1.70;;;;;;;15.53;100.00;95465.84;5073863;28;24437;-73
2023/07/05 04:34:49;;;;;;;2.03;1.60;;;;;;;15.60;100.00;95459.97;5069329;28;24458;-72
2023/07/05 04:37:16;;;;;;;3.40;1.95;;;;;;;15.63;100.00;95467.53;5069028;28;24780;-73
2023/07/05 04:39:43;;;;;;;2.75;1.80;;;;;;;15.55;100.00;95462.16;5067215;28;24435;-74
2023/07/05 04:42:09;;;;;;;3.22;2.13;;;;;;;15.59;100.00;95462.72;5064340;28;24993;-73
2023/07/05 04:44:36;;;;;;;5.80;2.20;;;;;;;15.63;100.00;95456.28;5071557;28;24439;-74
2023/07/05 04:47:02;;;;;;;2.58;1.80;;;;;;;15.76;100.00;95449.06;5065534;28;24466;-72
2023/07/05 04:49:29;;;;;;;3.10;2.22;;;;;;;15.89;100.00;95456.59;5069724;28;24534;-73
2023/07/05 04:51:55;;;;;;;2.45;1.92;;;;;;;15.90;100.00;95451.22;5079303;28;24998;-73
2023/07/05 04:54:23;;;;;;;1.98;1.73;;;;;;;15.83;100.00;95441.47;5071824;28;24454;-73
2023/07/05 04:56:49;;;;;;;2.30;1.70;;;;;;;15.98;100.00;95442.72;5068572;28;24627;-73
2023/07/05 04:59:16;;;;;;;3.95;1.73;;;;;;;15.94;100.00;95434.34;5069345;28;24980;-73
2023/07/05 05:01:42;;;;;;;3.05;1.70;;;;;;;16.01;100.00;95426.78;5078400;28;24426;-73
2023/07/05 05:04:09;;;;;;;5.17;1.70;;;;;;;15.98;100.00;95429.66;5073445;28;24453;-74
2023/07/05 05:06:35;;;;;;;2.72;1.58;;;;;;;16.02;100.00;95425.84;5075900;28;24434;-74
2023/07/05 05:09:01;;;;;;;4.40;1.92;;;;;;;16.03;100.00;95421.44;5081953;28;24433;-74
2023/07/05 05:11:29;;;;;;;3.33;1.80;;;;;;;15.97;100.00;95423.59;5067353;28;24504;-74
2023/07/05 05:13:56;;;;;;;11.40;2.27;;;;;;;16.06;100.00;95424.59;5075314;28;24442;-74
2023/07/05 05:16:23;;;;;;;3.60;1.70;;;;;;;16.08;100.00;95427.88;5075567;28;24500;-73
2023/07/05 05:18:49;;;;;;;4.77;2.00;;;;;;;16.19;100.00;95434.75;5083086;28;24434;-73
2023/07/05 05:21:15;;;;;;;4.07;2.00;;;;;;;16.30;100.00;95428.53;5067866;28;24430;-73
2023/07/05 05:23:42;;;;;;;3.83;1.92;;;;;;;16.41;100.00;95437.06;5072016;28;24805;-74
2023/07/05 05:26:08;;;;;;;5.57;1.80;;;;;;;16.58;100.00;95450.38;5061920;28;24484;-74
2023/07/05 05:28:36;;;;;;;2.67;1.77;;;;;;;16.61;100.00;95448.31;5063196;28;24443;-74
2023/07/05 05:31:05;;;;;;;3.65;2.08;;;;;;;16.69;100.00;95465.91;5073912;28;24462;-73
2023/07/05 05:33:31;;;;;;;2.63;1.80;;;;;;;16.80;100.00;95473.63;5071666;28;24473;-73
2023/07/05 05:35:58;;;;;;;2.35;1.70;;;;;;;16.88;100.00;95471.13;5070880;28;24820;-73
2023/07/05 05:38:24;;;;;;;3.38;1.90;;;;;;;16.96;100.00;95454.72;5071656;28;24513;-73
2023/07/05 05:40:51;;;;;;;2.90;1.77;;;;;;;17.26;100.00;95455.41;5076348;28;24545;-73
2023/07/05 05:43:18;;;;;;;3.83;1.88;;;;;;;17.35;100.00;95467.63;5075793;28;24488;-73
2023/07/05 05:45:46;;;;;;;4.07;2.10;;;;;;;17.51;100.00;95457.34;5068451;28;24526;-73
2023/07/05 05:48:14;;;;;;;4.28;1.85;;;;;;;17.54;100.00;95474.53;5076257;28;25025;-72
2023/07/05 05:50:40;;;;;;;4.20;2.00;;;;;;;17.45;100.00;95476.25;5074632;28;24484;-74
2023/07/05 05:53:10;;;;;;;3.47;1.75;;;;;;;17.41;100.00;95474.91;5069929;28;24443;-73
2023/07/05 05:55:37;;;;;;;3.42;1.90;;;;;;;17.37;100.00;95474.38;5069481;28;24441;-73
2023/07/05 05:58:04;;;;;;;3.90;1.90;;;;;;;17.34;100.00;95476.44;5069142;28;24446;-73
2023/07/05 06:00:31;;;;;;;4.63;2.13;;;;;;;17.37;100.00;95481.41;5077083;28;24438;-73
2023/07/05 06:02:58;;;;;;;4.57;2.03;;;;;;;17.40;100.00;95499.44;5064064;28;24489;-73
2023/07/05 06:05:25;;;;;;;3.50;2.08;;;;;;;17.28;100.00;95498.81;5059517;28;24496;-73
2023/07/05 06:07:53;;;;;;;3.42;2.17;;;;;;;17.21;100.00;95505.59;5072329;28;24451;-73
2023/07/05 06:10:19;;;;;;;3.42;2.10;;;;;;;17.02;100.00;95522.16;5068687;28;24457;-73
2023/07/05 06:12:45;;;;;;;7.40;2.45;;;;;;;16.81;100.00;95527.56;5060918;28;24442;-74
2023/07/05 06:15:14;;;;;;;6.53;2.72;;;;;;;16.57;100.00;95535.81;5074590;28;24437;-73
2023/07/05 06:17:41;;;;;;;8.48;1.88;;;;;;;16.29;100.00;95536.66;5069998;28;24922;-73
2023/07/05 06:20:10;;;;;;;8.45;2.05;;;;;;;16.10;100.00;95546.13;5070171;28;24427;-73
2023/07/05 06:22:38;;;;;;;6.13;2.30;;;;;;;15.96;100.00;95554.34;5065808;28;25028;-73
2023/07/05 06:25:05;;;;;;;2.37;1.60;;;;;;;16.03;100.00;95539.78;5078807;28;24542;-73
2023/07/05 06:27:31;;;;;;;3.97;2.00;;;;;;;16.10;100.00;95546.13;5073079;28;24434;-73
2023/07/05 06:29:59;;;;;;;7.43;1.75;;;;;;;16.11;100.00;95550.38;5062168;28;24466;-73
2023/07/05 06:32:26;;;;;;;2.45;1.70;;;;;;;16.14;100.00;95541.47;5077459;28;24529;-74
2023/07/05 06:34:52;;;;;;;3.83;1.80;;;;;;;16.14;100.00;95554.53;5061537;28;24435;-73
2023/07/05 06:37:20;;;;;;;4.35;2.15;;;;;;;16.13;100.00;95556.31;5080562;28;24975;-73
2023/07/05 06:39:47;;;;;;;4.28;1.77;;;;;;;16.08;100.00;95550.66;5066220;28;24457;-75
2023/07/05 06:42:14;;;;;;;3.45;1.67;;;;;;;16.23;100.00;95566.75;5084122;28;24801;-75
2023/07/05 06:44:40;;;;;;;5.70;1.88;;;;;;;16.19;100.00;95570.59;5067483;28;24446;-74
2023/07/05 06:47:06;;;;;;;6.30;1.77;;;;;;;16.12;100.00;95569.50;5063067;28;24446;-73
2023/07/05 06:49:33;;;;;;;4.65;1.75;;;;;;;16.21;100.00;95566.91;5079087;28;24461;-73
2023/07/05 06:51:59;;;;;;;3.67;1.80;;;;;;;16.24;100.00;95578.03;5074002;28;24539;-72
2023/07/05 06:54:27;;;;;;;4.68;2.00;;;;;;;16.25;100.00;95577.09;5070127;28;24439;-73
2023/07/05 06:56:55;;;;;;;4.50;1.75;;;;;;;16.29;100.00;95579.28;5074279;28;24438;-73
2023/07/05 06:59:22;;;;;;;2.42;1.60;;;;;;;16.29;100.00;95575.84;5066439;28;24809;-73
2023/07/05 07:01:48;;;;;;;2.20;1.55;;;;;;;16.40;100.00;95583.56;5066903;28;24832;-72
2023/07/05 07:04:14;;;;;;;3.05;1.63;;;;;;;16.45;100.00;95578.75;5083276;28;24434;-73
2023/07/05 07:06:41;;;;;;;2.53;1.83;;;;;;;16.64;100.00;95583.97;5075871;28;24438;-73
2023/07/05 07:09:08;;;;;;;3.40;1.60;;;;;;;16.60;100.00;95579.16;5074857;28;25050;-73
2023/07/05 07:11:35;;;;;;;1.67;1.17;;;;;;;16.66;100.00;95581.25;5071885;28;24483;-73
2023/07/05 07:14:02;;;;;;;1.85;1.20;;;;;;;16.66;100.00;95569.00;5086052;28;24442;-73
2023/07/05 07:16:28;;;;;;;1.65;1.10;;;;;;;16.88;100.00;95573.13;5066374;28;24443;-73
2023/07/05 07:18:55;;;;;;;2.55;1.42;;;;;;;16.91;100.00;95582.50;5079346;28;24442;-73
2023/07/05 07:21:22;;;;;;;4.18;1.25;;;;;;;16.93;100.00;95580.56;5067719;28;24800;-72
2023/07/05 07:23:49;;;;;;;1.40;1.13;;;;;;;17.19;100.00;95575.53;5065912;28;24990;-73
2023/07/05 07:26:20;;;;;;;1.57;0.97;;;;;;;17.45;100.00;95580.16;5073183;28;24437;-73
2023/07/05 07:28:49;;;;;;;2.87;1.33;;;;;;;17.48;100.00;95593.78;5070844;28;24838;-73
2023/07/05 07:31:19;;;;;;;1.80;1.10;;;;;;;17.30;100.00;95598.13;5067353;28;24461;-73
2023/07/05 07:33:46;;;;;;;2.15;1.20;;;;;;;17.22;100.00;95598.81;5063993;28;24441;-73
2023/07/05 07:36:14;;;;;;;1.90;1.37;;;;;;;17.13;100.00;95604.88;5068177;28;25006;-73
2023/07/05 07:38:42;;;;;;;2.33;1.15;;;;;;;16.93;100.00;95611.94;5073021;28;24452;-73
2023/07/05 07:41:16;;;;;;;1.00;0.90;;;;;;;16.84;100.00;95618.84;5081135;28;24435;-72
2023/07/05 07:43:43;;;;;;;1.40;0.95;;;;;;;16.58;100.00;95623.75;5067251;28;24442;-72
2023/07/05 07:46:12;;;;;;;1.60;1.13;;;;;;;16.49;100.00;95608.06;5060761;28;24442;-73
2023/07/05 07:48:41;;;;;;;1.77;0.95;;;;;;;16.35;100.00;95617.13;5075195;28;24434;-73
2023/07/05 07:51:08;;;;;;;1.60;0.95;;;;;;;16.17;100.00;95623.00;5074959;28;24454;-73
2023/07/05 07:53:34;;;;;;;1.20;0.82;;;;;;;16.14;100.00;95625.88;5077474;28;24441;-73
2023/07/05 07:56:01;;;;;;;1.10;0.90;;;;;;;16.25;100.00;95622.34;5077027;28;24976;-73
2023/07/05 07:58:27;;;;;;;1.10;0.88;;;;;;;16.21;100.00;95636.63;5070736;28;25077;-73
2023/07/05 08:00:54;;;;;;;3.60;0.90;;;;;;;16.27;100.00;95636.09;5062315;28;24481;-73
2023/07/05 08:03:21;;;;;;;2.67;0.87;;;;;;;16.40;100.00;95641.06;5078535;28;24449;-73
2023/07/05 08:05:51;;;;;;;1.20;1.10;;;;;;;16.53;100.00;95644.25;5069122;28;24441;-73
2023/07/05 08:08:17;;;;;;;3.30;1.38;;;;;;;16.41;100.00;95642.72;5067421;28;24443;-73
2023/07/05 08:10:44;;;;;;;4.15;1.20;;;;;;;16.68;100.00;95649.91;5069299;28;24508;-72
2023/07/05 08:13:10;;;;;;;3.40;1.30;;;;;;;16.77;100.00;95653.53;5076307;28;24448;-72
2023/07/05 08:15:37;;;;;;;1.95;1.10;;;;;;;16.66;100.00;95650.03;5065816;28;24443;-72
2023/07/05 08:18:03;;;;;;;3.92;1.35;;;;;;;16.33;100.00;95660.88;5062479;28;25015;-72
2023/07/05 08:20:31;;;;;;;1.83;1.43;;;;;;;16.19;100.00;95668.09;5059355;28;24540;-72
2023/07/05 08:22:57;;;;;;;2.20;1.63;;;;;;;16.07;100.00;95679.63;5072528;28;24797;-72
2023/07/05 08:25:24;;;;;;;3.92;1.90;;;;;;;16.07;100.00;95681.41;5073448;28;24495;-72
2023/07/05 08:27:50;;;;;;;3.28;2.00;;;;;;;16.00;100.00;95677.69;5064870;28;24437;-72
2023/07/05 08:30:17;;;;;;;4.87;2.20;;;;;;;16.15;100.00;95679.78;5061415;28;25006;-73
2023/07/05 08:32:43;;;;;;;2.88;1.92;;;;;;;16.38;100.00;95688.25;5063859;28;24447;-73
2023/07/05 08:35:10;;;;;;;2.40;2.20;;;;;;;16.89;100.00;95679.41;5077301;28;24497;-72
2023/07/05 08:37:37;;;;;;;2.80;2.13;;;;;;;17.27;100.00;95676.91;5075834;28;24441;-71
2023/07/05 08:40:07;;;;;;;3.90;2.42;;;;;;;16.89;100.00;95679.41;5070917;28;24446;-73
2023/07/05 08:42:43;;;;;;;4.13;2.17;;;;;;;17.09;100.00;95700.34;5076564;28;24441;-72
2023/07/05 08:45:20;;;;;;;2.63;2.10;;;;;;;17.18;100.00;95692.50;5076735;28;24488;-72
2023/07/05 08:47:51;;;;;;;2.15;1.95;;;;;;;17.30;100.00;95687.94;5071074;28;24435;-73
2023/07/05 08:50:24;;;;;;;2.97;2.30;;;;;;;17.56;100.00;95705.66;5065753;28;24441;-73
2023/07/05 08:52:58;;;;;;;3.40;2.60;;;;;;;17.40;100.00;95693.97;5066151;28;24450;-73
2023/07/05 08:55:28;;;;;;;4.53;2.50;;;;;;;17.73;100.00;95702.34;5064666;28;24433;-73
2023/07/05 08:57:56;;;;;;;3.88;2.63;;;;;;;17.97;100.00;95704.50;5073291;28;24438;-73
2023/07/05 09:00:28;;;;;;;3.80;2.73;;;;;;;17.85;100.00;95705.63;5075018;28;24442;-73
2023/07/05 09:02:55;;;;;;;2.97;2.53;;;;;;;17.67;100.00;95716.81;5073372;28;24513;-73
2023/07/05 09:05:33;;;;;;;6.00;2.90;;;;;;;17.80;100.00;95710.50;5078544;28;24487;-73
2023/07/05 09:08:14;;;;;;;3.67;2.65;;;;;;;17.35;100.00;95718.91;5077622;28;25268;-72
2023/07/05 09:10:46;;;;;;;3.95;2.70;;;;;;;17.45;100.00;95718.91;5067455;28;24486;-73
2023/07/05 09:13:17;;;;;;;3.05;2.45;;;;;;;17.46;100.00;95721.38;5059028;28;25063;-72
2023/07/05 09:15:49;;;;;;;3.23;2.63;;;;;;;17.81;100.00;95720.81;5060410;28;24533;-72
2023/07/05 09:18:22;;;;;;;4.18;2.88;;;;;;;18.40;100.00;95728.47;5074776;28;24992;-73
2023/07/05 09:20:57;;;;;;;4.47;2.78;;;;;;;18.16;100.00;95715.88;5075275;28;24446;-74
2023/07/05 09:23:32;;;;;;;4.17;3.13;;;;;;;18.73;100.00;95713.97;5073094;28;24442;-72
2023/07/05 09:26:04;;;;;;;5.65;3.55;;;;;;;18.77;100.00;95712.69;5070806;28;24434;-75
2023/07/05 09:28:37;;;;;;;3.47;2.60;;;;;;;18.35;100.00;95718.41;5059393;28;24454;-74
2023/07/05 09:31:11;;;;;;;3.78;2.67;;;;;;;18.88;100.00;95732.66;5065871;28;24999;-74
2023/07/05 09:33:42;;;;;;;4.70;3.08;;;;;;;19.23;100.00;95727.41;5055296;28;24534;-76
2023/07/05 09:36:14;;;;;;;5.65;3.15;;;;;;;19.25;100.00;95728.09;5060388;28;24453;-74
2023/07/05 09:38:48;;;;;;;3.80;3.17;;;;;;;19.40;100.00;95731.00;5065060;28;24566;-73
2023/07/05 09:41:20;;;;;;;4.53;3.17;;;;;;;19.25;100.00;95735.16;5068713;28;24493;-73
2023/07/05 09:43:47;;;;;;;3.97;3.00;;;;;;;19.57;100.00;95739.81;5064431;28;24997;-74
2023/07/05 09:46:21;;;;;;;4.97;3.20;;;;;;;19.57;96.79;95737.19;5066039;28;24479;-73
2023/07/05 09:48:47;;;;;;;3.20;2.90;;;;;;;19.76;96.03;95747.59;5066710;28;24765;-73
2023/07/05 09:51:15;;;;;;;4.17;3.00;;;;;;;19.90;90.93;95756.69;5065820;28;25010;-73
2023/07/05 09:53:47;;;;;;;3.85;3.03;;;;;;;19.81;93.94;95745.31;5063547;28;24813;-73
2023/07/05 09:56:16;;;;;;;5.93;2.90;;;;;;;20.07;95.15;95747.13;5058799;28;24445;-74
2023/07/05 09:58:44;;;;;;;5.10;3.33;;;;;;;19.89;77.82;95747.16;5069020;28;24458;-74
2023/07/05 10:01:15;;;;;;;3.70;2.88;;;;;;;19.21;76.55;95736.44;5060448;28;24473;-73
2023/07/05 10:03:52;;;;;;;3.58;3.10;;;;;;;18.72;78.21;95739.34;5064668;28;24881;-73
2023/07/05 10:06:20;;;;;;;4.10;3.30;;;;;;;19.21;73.51;95742.50;5059285;28;24434;-73
2023/07/05 10:08:51;;;;;;;3.78;3.47;;;;;;;19.46;73.70;95742.69;5062867;28;24437;-75
2023/07/05 10:11:26;;;;;;;5.97;3.70;;;;;;;19.93;71.68;95739.78;5054474;28;24459;-74
2023/07/05 10:14:12;;;;;;;4.47;3.30;;;;;;;19.94;76.05;95744.06;5058627;28;24813;-74
2023/07/05 10:16:48;;;;;;;5.63;3.80;;;;;;;19.96;69.95;95739.50;5057931;28;24471;-74
2023/07/05 10:19:23;;;;;;;4.30;3.10;;;;;;;19.93;65.21;95734.53;5066335;28;24434;-74
2023/07/05 10:21:52;;;;;;;6.13;2.80;;;;;;;20.44;59.55;95740.75;5065179;28;24812;-74
2023/07/05 10:24:21;;;;;;;4.00;2.90;;;;;;;20.59;55.44;95739.19;5066042;28;24478;-74
2023/07/05 10:26:50;;;;;;;3.42;2.70;;;;;;;20.37;55.53;95737.91;5060547;28;24996;-74
2023/07/05 10:29:21;;;;;;;5.47;3.17;;;;;;;20.43;58.52;95729.41;5061991;28;24556;-74
2023/07/05 10:31:54;;;;;;;4.30;3.30;;;;;;;19.79;60.58;95743.81;5063632;28;24485;-74
2023/07/05 10:34:23;;;;;;;5.13;3.30;;;;;;;19.86;60.87;95744.03;5060998;28;24471;-74
2023/07/05 10:36:50;;;;;;;3.17;2.88;;;;;;;20.30;57.58;95747.41;5058204;28;24492;-75
2023/07/05 10:39:23;;;;;;;4.13;3.03;;;;;;;20.43;55.55;95760.97;5059074;28;24430;-75
2023/07/05 10:41:52;;;;;;;3.90;2.83;;;;;;;20.38;55.52;95752.69;5066631;28;24512;-74
2023/07/05 10:44:26;;;;;;;5.30;2.78;;;;;;;20.37;53.89;95758.13;5060443;28;24435;-74
2023/07/05 10:46:52;;;;;;;7.25;3.00;;;;;;;19.81;53.23;95750.56;5057252;28;25125;-75
2023/07/05 10:49:20;;;;;;;4.35;2.92;;;;;;;19.98;56.40;95750.66;5063998;28;24438;-74
2023/07/05 10:51:50;;;;;;;5.70;2.90;;;;;;;20.00;57.39;95757.41;5065709;28;24446;-75
2023/07/05 10:54:30;;;;;;;3.87;2.67;;;;;;;20.72;53.74;95770.31;5061880;23;24548;-75
2023/07/05 10:56:58;;;;;;;4.15;2.92;;;;;;;20.40;55.63;95763.91;5046505;28;24438;-74
2023/07/05 10:59:33;;;;;;;3.88;3.10;;;;;;;20.62;57.58;95764.38;5040881;28;24851;-74
2023/07/05 11:02:02;;;;;;;6.47;3.20;;;;;;;20.30;59.94;95764.00;5037410;28;24537;-75
2023/07/05 11:04:31;;;;;;;4.10;3.17;;;;;;;20.27;57.98;95751.16;5023277;28;24632;-74
2023/07/05 11:07:06;;;;;;;5.10;2.92;;;;;;;20.20;57.26;95751.94;5023349;28;24443;-74
2023/07/05 11:09:36;;;;;;;4.22;2.65;;;;;;;20.20;54.05;95760.66;5024923;28;24547;-74
2023/07/05 11:12:06;;;;;;;3.95;2.55;;;;;;;20.39;54.86;95750.88;5024170;28;24916;-74
2023/07/05 11:14:33;;;;;;;3.28;2.65;;;;;;;20.38;56.72;95757.97;5014935;28;24452;-75
2023/07/05 11:17:00;;;;;;;4.53;2.72;;;;;;;20.91;55.07;95761.31;5026874;28;24452;-74
2023/07/05 11:19:28;;;;;;;3.45;2.50;;;;;;;20.64;52.62;95751.84;5019748;28;24442;-77
2023/07/05 11:21:56;;;;;;;3.00;2.42;;;;;;;20.89;54.75;95753.59;5022159;28;24439;-77
2023/07/05 11:24:45;;;;;;;3.13;2.60;;;;;;;20.92;54.99;95747.19;5023445;28;25047;-78
2023/07/05 11:27:47;;;;;;;5.67;2.80;;;;;;;21.19;55.48;95749.53;5020470;28;24516;-78
2023/07/05 11:30:42;;;;;;;5.95;2.67;;;;;;;21.13;56.24;95744.09;5026586;28;24439;-78
2023/07/05 11:33:16;;;;;;;3.55;2.35;;;;;;;20.99;50.39;95748.19;5027285;28;24506;-77
2023/07/05 11:35:45;;;;;;;3.95;2.50;;;;;;;21.45;48.02;95744.16;5021458;28;24463;-77